sensor_id;sensor_type;location;lat;lon;timestamp;P1;durP1;ratioP1;P2;durP2;ratioP2
11988;SDS011;6054;50.966;7.094;2022-08-26T00:01:10;6.28;;;4.68;;
11988;SDS011;6054;50.966;7.094;2022-08-26T00:03:37;6.68;;;5.55;;
11988;SDS011;6054;50.966;7.094;2022-08-26T00:06:04;5.03;;;4.60;;
11988;SDS011;6054;50.966;7.094;2022-08-26T00:08:31;7.75;;;5.18;;
11988;SDS011;6054;50.966;7.094;2022-08-26T00:10:58;5.45;;;4.97;;
11988;SDS011;6054;50.966;7.094;2022-08-26T00:13:25;5.68;;;5.05;;
11988;SDS011;6054;50.966;7.094;2022-08-26T00:15:54;5.55;;;5.05;;
11988;SDS011;6054;50.966;7.094;2022-08-26T00:18:21;6.03;;;4.93;;
11988;SDS011;6054;50.966;7.094;2022-08-26T00:20:48;5.72;;;5.22;;
11988;SDS011;6054;50.966;7.094;2022-08-26T00:23:15;5.63;;;5.10;;
11988;SDS011;6054;50.966;7.094;2022-08-26T00:25:42;6.90;;;5.18;;
11988;SDS011;6054;50.966;7.094;2022-08-26T00:28:09;5.20;;;4.70;;
11988;SDS011;6054;50.966;7.094;2022-08-26T00:30:37;6.95;;;5.10;;
11988;SDS011;6054;50.966;7.094;2022-08-26T00:33:05;6.63;;;4.85;;
11988;SDS011;6054;50.966;7.094;2022-08-26T00:35:33;7.03;;;5.10;;
11988;SDS011;6054;50.966;7.094;2022-08-26T00:38:00;6.80;;;5.18;;
11988;SDS011;6054;50.966;7.094;2022-08-26T00:40:30;5.30;;;4.80;;
11988;SDS011;6054;50.966;7.094;2022-08-26T00:42:58;5.97;;;5.38;;
11988;SDS011;6054;50.966;7.094;2022-08-26T00:45:26;5.07;;;4.75;;
11988;SDS011;6054;50.966;7.094;2022-08-26T00:48:00;5.47;;;5.03;;
11988;SDS011;6054;50.966;7.094;2022-08-26T00:50:36;5.40;;;5.00;;
11988;SDS011;6054;50.966;7.094;2022-08-26T00:53:07;5.40;;;4.55;;
11988;SDS011;6054;50.966;7.094;2022-08-26T00:55:46;5.65;;;5.15;;
11988;SDS011;6054;50.966;7.094;2022-08-26T00:58:16;5.28;;;4.78;;
11988;SDS011;6054;50.966;7.094;2022-08-26T01:00:43;6.88;;;5.38;;
11988;SDS011;6054;50.966;7.094;2022-08-26T01:03:10;5.60;;;5.18;;
11988;SDS011;6054;50.966;7.094;2022-08-26T01:05:39;5.53;;;4.90;;
11988;SDS011;6054;50.966;7.094;2022-08-26T01:08:06;5.78;;;5.28;;
11988;SDS011;6054;50.966;7.094;2022-08-26T01:10:33;6.25;;;5.57;;
11988;SDS011;6054;50.966;7.094;2022-08-26T01:13:01;6.30;;;5.60;;
11988;SDS011;6054;50.966;7.094;2022-08-26T01:15:31;7.43;;;5.53;;
11988;SDS011;6054;50.966;7.094;2022-08-26T01:18:01;9.23;;;5.53;;
11988;SDS011;6054;50.966;7.094;2022-08-26T01:20:32;7.03;;;5.53;;
11988;SDS011;6054;50.966;7.094;2022-08-26T01:23:07;6.20;;;5.65;;
11988;SDS011;6054;50.966;7.094;2022-08-26T01:25:36;11.25;;;8.02;;
11988;SDS011;6054;50.966;7.094;2022-08-26T01:28:06;7.55;;;6.85;;
11988;SDS011;6054;50.966;7.094;2022-08-26T01:30:41;9.30;;;6.90;;
11988;SDS011;6054;50.966;7.094;2022-08-26T01:33:10;7.38;;;6.75;;
11988;SDS011;6054;50.966;7.094;2022-08-26T01:35:40;7.72;;;6.50;;
11988;SDS011;6054;50.966;7.094;2022-08-26T01:38:10;10.85;;;6.35;;
11988;SDS011;6054;50.966;7.094;2022-08-26T01:40:38;7.40;;;5.88;;
11988;SDS011;6054;50.966;7.094;2022-08-26T01:43:07;10.77;;;5.70;;
11988;SDS011;6054;50.966;7.094;2022-08-26T01:45:39;10.73;;;6.05;;
11988;SDS011;6054;50.966;7.094;2022-08-26T01:48:07;8.73;;;6.28;;
11988;SDS011;6054;50.966;7.094;2022-08-26T01:50:39;11.10;;;8.80;;
11988;SDS011;6054;50.966;7.094;2022-08-26T01:53:07;17.73;;;14.35;;
11988;SDS011;6054;50.966;7.094;2022-08-26T01:55:37;11.27;;;9.25;;
11988;SDS011;6054;50.966;7.094;2022-08-26T01:58:07;15.75;;;14.10;;
11988;SDS011;6054;50.966;7.094;2022-08-26T02:00:38;20.33;;;13.48;;
11988;SDS011;6054;50.966;7.094;2022-08-26T02:03:05;13.70;;;12.25;;
11988;SDS011;6054;50.966;7.094;2022-08-26T02:05:42;16.92;;;14.48;;
11988;SDS011;6054;50.966;7.094;2022-08-26T02:08:11;12.52;;;10.90;;
11988;SDS011;6054;50.966;7.094;2022-08-26T02:10:39;12.52;;;10.50;;
11988;SDS011;6054;50.966;7.094;2022-08-26T02:13:06;16.58;;;13.20;;
11988;SDS011;6054;50.966;7.094;2022-08-26T02:15:35;18.67;;;16.77;;
11988;SDS011;6054;50.966;7.094;2022-08-26T02:18:02;22.80;;;19.67;;
11988;SDS011;6054;50.966;7.094;2022-08-26T02:20:30;35.72;;;30.40;;
11988;SDS011;6054;50.966;7.094;2022-08-26T02:22:58;41.35;;;37.05;;
11988;SDS011;6054;50.966;7.094;2022-08-26T02:25:28;48.25;;;43.13;;
11988;SDS011;6054;50.966;7.094;2022-08-26T02:27:58;44.47;;;40.00;;
11988;SDS011;6054;50.966;7.094;2022-08-26T02:30:26;49.00;;;44.03;;
11988;SDS011;6054;50.966;7.094;2022-08-26T02:32:56;50.42;;;44.95;;
11988;SDS011;6054;50.966;7.094;2022-08-26T02:35:24;47.35;;;42.42;;
11988;SDS011;6054;50.966;7.094;2022-08-26T02:37:52;48.25;;;43.33;;
11988;SDS011;6054;50.966;7.094;2022-08-26T02:40:20;48.45;;;43.28;;
11988;SDS011;6054;50.966;7.094;2022-08-26T02:42:51;50.05;;;44.60;;
11988;SDS011;6054;50.966;7.094;2022-08-26T02:45:17;49.97;;;43.50;;
11988;SDS011;6054;50.966;7.094;2022-08-26T02:47:45;49.40;;;44.50;;
11988;SDS011;6054;50.966;7.094;2022-08-26T02:50:13;47.13;;;42.30;;
11988;SDS011;6054;50.966;7.094;2022-08-26T02:52:40;47.92;;;43.20;;
11988;SDS011;6054;50.966;7.094;2022-08-26T02:55:06;48.90;;;43.60;;
11988;SDS011;6054;50.966;7.094;2022-08-26T02:57:33;48.80;;;43.58;;
11988;SDS011;6054;50.966;7.094;2022-08-26T03:00:02;48.28;;;43.25;;
11988;SDS011;6054;50.966;7.094;2022-08-26T03:02:30;47.03;;;41.75;;
11988;SDS011;6054;50.966;7.094;2022-08-26T03:04:57;47.05;;;42.10;;
11988;SDS011;6054;50.966;7.094;2022-08-26T03:07:24;48.17;;;43.28;;
11988;SDS011;6054;50.966;7.094;2022-08-26T03:09:51;47.75;;;42.83;;
11988;SDS011;6054;50.966;7.094;2022-08-26T03:12:18;44.38;;;39.63;;
11988;SDS011;6054;50.966;7.094;2022-08-26T03:14:45;45.83;;;41.15;;
11988;SDS011;6054;50.966;7.094;2022-08-26T03:17:13;47.58;;;42.65;;
11988;SDS011;6054;50.966;7.094;2022-08-26T03:19:40;47.08;;;42.03;;
11988;SDS011;6054;50.966;7.094;2022-08-26T03:22:07;44.58;;;39.60;;
11988;SDS011;6054;50.966;7.094;2022-08-26T03:24:34;44.90;;;40.25;;
11988;SDS011;6054;50.966;7.094;2022-08-26T03:27:01;43.88;;;39.38;;
11988;SDS011;6054;50.966;7.094;2022-08-26T03:29:28;44.00;;;39.78;;
11988;SDS011;6054;50.966;7.094;2022-08-26T03:32:14;42.08;;;37.70;;
11988;SDS011;6054;50.966;7.094;2022-08-26T03:34:41;40.50;;;36.15;;
11988;SDS011;6054;50.966;7.094;2022-08-26T03:37:08;41.97;;;37.65;;
11988;SDS011;6054;50.966;7.094;2022-08-26T03:39:34;41.15;;;36.90;;
11988;SDS011;6054;50.966;7.094;2022-08-26T03:42:01;40.72;;;36.33;;
11988;SDS011;6054;50.966;7.094;2022-08-26T03:44:30;38.97;;;34.83;;
11988;SDS011;6054;50.966;7.094;2022-08-26T03:46:57;39.70;;;35.60;;
11988;SDS011;6054;50.966;7.094;2022-08-26T03:49:25;38.20;;;34.28;;
11988;SDS011;6054;50.966;7.094;2022-08-26T03:51:52;37.35;;;33.47;;
11988;SDS011;6054;50.966;7.094;2022-08-26T03:54:19;38.10;;;33.03;;
11988;SDS011;6054;50.966;7.094;2022-08-26T03:56:45;38.13;;;34.33;;
11988;SDS011;6054;50.966;7.094;2022-08-26T03:59:12;37.28;;;33.38;;
11988;SDS011;6054;50.966;7.094;2022-08-26T04:01:39;36.08;;;32.30;;
11988;SDS011;6054;50.966;7.094;2022-08-26T04:04:06;36.17;;;32.33;;
11988;SDS011;6054;50.966;7.094;2022-08-26T04:06:36;36.53;;;32.47;;
11988;SDS011;6054;50.966;7.094;2022-08-26T04:09:07;43.40;;;32.05;;
11988;SDS011;6054;50.966;7.094;2022-08-26T04:11:35;39.00;;;33.83;;
11988;SDS011;6054;50.966;7.094;2022-08-26T04:14:05;35.80;;;32.28;;
11988;SDS011;6054;50.966;7.094;2022-08-26T04:16:34;37.35;;;30.83;;
11988;SDS011;6054;50.966;7.094;2022-08-26T04:19:01;36.63;;;32.20;;
11988;SDS011;6054;50.966;7.094;2022-08-26T04:21:28;35.60;;;31.85;;
11988;SDS011;6054;50.966;7.094;2022-08-26T04:23:56;37.17;;;32.83;;
11988;SDS011;6054;50.966;7.094;2022-08-26T04:26:23;41.78;;;36.25;;
11988;SDS011;6054;50.966;7.094;2022-08-26T04:28:50;43.28;;;35.97;;
11988;SDS011;6054;50.966;7.094;2022-08-26T04:31:18;44.40;;;35.63;;
11988;SDS011;6054;50.966;7.094;2022-08-26T04:33:46;43.70;;;37.40;;
11988;SDS011;6054;50.966;7.094;2022-08-26T04:36:14;48.00;;;38.03;;
11988;SDS011;6054;50.966;7.094;2022-08-26T04:38:41;47.97;;;38.10;;
11988;SDS011;6054;50.966;7.094;2022-08-26T04:41:11;49.03;;;39.60;;
11988;SDS011;6054;50.966;7.094;2022-08-26T04:43:38;50.38;;;39.28;;
11988;SDS011;6054;50.966;7.094;2022-08-26T04:46:05;51.50;;;40.28;;
11988;SDS011;6054;50.966;7.094;2022-08-26T04:48:33;50.33;;;38.47;;
11988;SDS011;6054;50.966;7.094;2022-08-26T04:51:00;41.85;;;35.63;;
11988;SDS011;6054;50.966;7.094;2022-08-26T04:53:28;47.55;;;37.17;;
11988;SDS011;6054;50.966;7.094;2022-08-26T04:55:56;43.70;;;35.00;;
11988;SDS011;6054;50.966;7.094;2022-08-26T04:58:24;46.13;;;37.95;;
11988;SDS011;6054;50.966;7.094;2022-08-26T05:00:52;46.05;;;35.30;;
11988;SDS011;6054;50.966;7.094;2022-08-26T05:03:20;44.50;;;36.20;;
11988;SDS011;6054;50.966;7.094;2022-08-26T05:05:49;47.22;;;35.85;;
11988;SDS011;6054;50.966;7.094;2022-08-26T05:08:17;41.47;;;34.17;;
11988;SDS011;6054;50.966;7.094;2022-08-26T05:10:47;43.05;;;34.53;;
11988;SDS011;6054;50.966;7.094;2022-08-26T05:13:17;36.63;;;31.55;;
11988;SDS011;6054;50.966;7.094;2022-08-26T05:15:47;38.60;;;33.05;;
11988;SDS011;6054;50.966;7.094;2022-08-26T05:18:14;42.50;;;31.98;;
11988;SDS011;6054;50.966;7.094;2022-08-26T05:20:45;36.15;;;31.13;;
11988;SDS011;6054;50.966;7.094;2022-08-26T05:23:14;42.20;;;30.98;;
11988;SDS011;6054;50.966;7.094;2022-08-26T05:25:42;35.55;;;31.15;;
11988;SDS011;6054;50.966;7.094;2022-08-26T05:28:12;38.17;;;31.17;;
11988;SDS011;6054;50.966;7.094;2022-08-26T05:30:41;33.78;;;29.13;;
11988;SDS011;6054;50.966;7.094;2022-08-26T05:33:09;34.78;;;28.40;;
11988;SDS011;6054;50.966;7.094;2022-08-26T05:35:37;33.45;;;28.42;;
11988;SDS011;6054;50.966;7.094;2022-08-26T05:38:06;35.65;;;27.58;;
11988;SDS011;6054;50.966;7.094;2022-08-26T05:40:35;30.02;;;26.83;;
11988;SDS011;6054;50.966;7.094;2022-08-26T05:43:04;31.38;;;27.02;;
11988;SDS011;6054;50.966;7.094;2022-08-26T05:45:34;29.50;;;24.17;;
11988;SDS011;6054;50.966;7.094;2022-08-26T05:48:02;28.27;;;25.13;;
11988;SDS011;6054;50.966;7.094;2022-08-26T05:50:35;33.35;;;25.67;;
11988;SDS011;6054;50.966;7.094;2022-08-26T05:53:03;29.40;;;23.75;;
11988;SDS011;6054;50.966;7.094;2022-08-26T05:55:31;26.75;;;23.55;;
11988;SDS011;6054;50.966;7.094;2022-08-26T05:57:58;26.13;;;22.30;;
11988;SDS011;6054;50.966;7.094;2022-08-26T06:00:25;32.15;;;22.25;;
11988;SDS011;6054;50.966;7.094;2022-08-26T06:02:52;27.35;;;22.35;;
11988;SDS011;6054;50.966;7.094;2022-08-26T06:05:19;30.85;;;22.55;;
11988;SDS011;6054;50.966;7.094;2022-08-26T06:07:47;25.45;;;21.27;;
11988;SDS011;6054;50.966;7.094;2022-08-26T06:10:32;24.70;;;20.02;;
11988;SDS011;6054;50.966;7.094;2022-08-26T06:12:59;28.33;;;20.55;;
11988;SDS011;6054;50.966;7.094;2022-08-26T06:15:26;25.98;;;20.20;;
11988;SDS011;6054;50.966;7.094;2022-08-26T06:17:53;19.52;;;16.98;;
11988;SDS011;6054;50.966;7.094;2022-08-26T06:20:19;21.48;;;17.73;;
11988;SDS011;6054;50.966;7.094;2022-08-26T06:22:47;22.05;;;18.42;;
11988;SDS011;6054;50.966;7.094;2022-08-26T06:25:36;23.95;;;18.42;;
11988;SDS011;6054;50.966;7.094;2022-08-26T06:28:03;23.75;;;19.25;;
11988;SDS011;6054;50.966;7.094;2022-08-26T06:30:30;26.48;;;17.70;;
11988;SDS011;6054;50.966;7.094;2022-08-26T06:32:57;20.85;;;17.27;;
11988;SDS011;6054;50.966;7.094;2022-08-26T06:35:25;23.95;;;16.00;;
11988;SDS011;6054;50.966;7.094;2022-08-26T06:37:53;18.85;;;15.65;;
11988;SDS011;6054;50.966;7.094;2022-08-26T06:40:20;25.45;;;15.68;;
11988;SDS011;6054;50.966;7.094;2022-08-26T06:42:48;21.92;;;16.83;;
11988;SDS011;6054;50.966;7.094;2022-08-26T06:45:14;20.30;;;15.60;;
11988;SDS011;6054;50.966;7.094;2022-08-26T06:47:41;22.10;;;16.58;;
11988;SDS011;6054;50.966;7.094;2022-08-26T06:50:08;20.75;;;16.17;;
11988;SDS011;6054;50.966;7.094;2022-08-26T06:52:35;17.13;;;15.38;;
11988;SDS011;6054;50.966;7.094;2022-08-26T06:55:03;23.90;;;17.38;;
11988;SDS011;6054;50.966;7.094;2022-08-26T06:57:31;19.85;;;15.35;;
11988;SDS011;6054;50.966;7.094;2022-08-26T07:00:01;22.48;;;14.60;;
11988;SDS011;6054;50.966;7.094;2022-08-26T07:02:30;19.10;;;14.88;;
11988;SDS011;6054;50.966;7.094;2022-08-26T07:04:57;15.68;;;13.60;;
11988;SDS011;6054;50.966;7.094;2022-08-26T07:07:23;19.02;;;15.30;;
11988;SDS011;6054;50.966;7.094;2022-08-26T07:09:50;15.93;;;14.00;;
11988;SDS011;6054;50.966;7.094;2022-08-26T07:12:18;18.38;;;13.10;;
11988;SDS011;6054;50.966;7.094;2022-08-26T07:14:45;20.83;;;13.48;;
11988;SDS011;6054;50.966;7.094;2022-08-26T07:17:12;17.85;;;12.98;;
11988;SDS011;6054;50.966;7.094;2022-08-26T07:19:40;18.30;;;14.52;;
11988;SDS011;6054;50.966;7.094;2022-08-26T07:22:06;17.35;;;13.60;;
11988;SDS011;6054;50.966;7.094;2022-08-26T07:24:34;19.10;;;14.48;;
11988;SDS011;6054;50.966;7.094;2022-08-26T07:27:05;17.42;;;14.52;;
11988;SDS011;6054;50.966;7.094;2022-08-26T07:29:36;20.15;;;15.75;;
11988;SDS011;6054;50.966;7.094;2022-08-26T07:32:05;19.55;;;15.15;;
11988;SDS011;6054;50.966;7.094;2022-08-26T07:34:32;18.83;;;15.90;;
11988;SDS011;6054;50.966;7.094;2022-08-26T07:36:59;17.60;;;15.38;;
11988;SDS011;6054;50.966;7.094;2022-08-26T07:39:26;21.67;;;18.85;;
11988;SDS011;6054;50.966;7.094;2022-08-26T07:41:53;23.55;;;19.42;;
11988;SDS011;6054;50.966;7.094;2022-08-26T07:44:20;29.80;;;16.92;;
11988;SDS011;6054;50.966;7.094;2022-08-26T07:46:49;21.92;;;17.33;;
11988;SDS011;6054;50.966;7.094;2022-08-26T07:49:16;18.55;;;15.52;;
11988;SDS011;6054;50.966;7.094;2022-08-26T07:51:43;17.73;;;15.82;;
11988;SDS011;6054;50.966;7.094;2022-08-26T07:54:10;16.95;;;15.25;;
11988;SDS011;6054;50.966;7.094;2022-08-26T07:56:37;21.33;;;16.38;;
11988;SDS011;6054;50.966;7.094;2022-08-26T07:59:03;19.33;;;15.52;;
11988;SDS011;6054;50.966;7.094;2022-08-26T08:01:30;17.10;;;14.80;;
11988;SDS011;6054;50.966;7.094;2022-08-26T08:03:58;17.65;;;15.73;;
11988;SDS011;6054;50.966;7.094;2022-08-26T08:06:25;20.05;;;14.98;;
11988;SDS011;6054;50.966;7.094;2022-08-26T08:08:52;22.15;;;18.08;;
11988;SDS011;6054;50.966;7.094;2022-08-26T08:11:19;20.27;;;16.95;;
11988;SDS011;6054;50.966;7.094;2022-08-26T08:13:46;17.35;;;14.43;;
11988;SDS011;6054;50.966;7.094;2022-08-26T08:16:13;14.63;;;11.57;;
11988;SDS011;6054;50.966;7.094;2022-08-26T08:18:40;14.93;;;12.07;;
11988;SDS011;6054;50.966;7.094;2022-08-26T08:21:09;13.00;;;11.02;;
11988;SDS011;6054;50.966;7.094;2022-08-26T08:23:36;18.70;;;10.93;;
11988;SDS011;6054;50.966;7.094;2022-08-26T08:26:05;14.07;;;10.18;;
11988;SDS011;6054;50.966;7.094;2022-08-26T08:28:33;14.38;;;10.02;;
11988;SDS011;6054;50.966;7.094;2022-08-26T08:31:00;17.00;;;11.43;;
11988;SDS011;6054;50.966;7.094;2022-08-26T08:33:27;18.95;;;12.68;;
11988;SDS011;6054;50.966;7.094;2022-08-26T08:35:54;14.05;;;12.55;;
11988;SDS011;6054;50.966;7.094;2022-08-26T08:38:22;17.48;;;13.88;;
11988;SDS011;6054;50.966;7.094;2022-08-26T08:40:49;15.95;;;12.63;;
11988;SDS011;6054;50.966;7.094;2022-08-26T08:43:19;15.02;;;12.43;;
11988;SDS011;6054;50.966;7.094;2022-08-26T08:45:57;16.77;;;13.32;;
11988;SDS011;6054;50.966;7.094;2022-08-26T08:48:30;17.92;;;11.80;;
11988;SDS011;6054;50.966;7.094;2022-08-26T08:51:02;14.63;;;12.52;;
11988;SDS011;6054;50.966;7.094;2022-08-26T08:53:37;14.45;;;11.98;;
11988;SDS011;6054;50.966;7.094;2022-08-26T08:56:09;15.23;;;12.43;;
11988;SDS011;6054;50.966;7.094;2022-08-26T08:58:45;17.80;;;12.38;;
11988;SDS011;6054;50.966;7.094;2022-08-26T09:01:27;17.30;;;12.95;;
11988;SDS011;6054;50.966;7.094;2022-08-26T09:04:08;16.15;;;12.13;;
11988;SDS011;6054;50.966;7.094;2022-08-26T09:06:45;15.40;;;12.60;;
11988;SDS011;6054;50.966;7.094;2022-08-26T09:09:15;21.65;;;13.65;;
11988;SDS011;6054;50.966;7.094;2022-08-26T09:11:48;14.27;;;12.60;;
11988;SDS011;6054;50.966;7.094;2022-08-26T09:14:15;19.65;;;14.02;;
11988;SDS011;6054;50.966;7.094;2022-08-26T09:16:44;18.67;;;16.10;;
11988;SDS011;6054;50.966;7.094;2022-08-26T09:19:17;24.35;;;15.93;;
11988;SDS011;6054;50.966;7.094;2022-08-26T09:21:53;17.15;;;14.38;;
11988;SDS011;6054;50.966;7.094;2022-08-26T09:24:21;16.98;;;15.18;;
11988;SDS011;6054;50.966;7.094;2022-08-26T09:26:48;16.55;;;14.20;;
11988;SDS011;6054;50.966;7.094;2022-08-26T09:29:21;16.77;;;14.52;;
11988;SDS011;6054;50.966;7.094;2022-08-26T09:31:50;15.32;;;13.73;;
11988;SDS011;6054;50.966;7.094;2022-08-26T09:34:19;19.95;;;13.52;;
11988;SDS011;6054;50.966;7.094;2022-08-26T09:36:48;14.68;;;12.52;;
11988;SDS011;6054;50.966;7.094;2022-08-26T09:39:26;16.88;;;13.68;;
11988;SDS011;6054;50.966;7.094;2022-08-26T09:42:00;18.20;;;14.05;;
11988;SDS011;6054;50.966;7.094;2022-08-26T09:44:33;18.05;;;14.00;;
11988;SDS011;6054;50.966;7.094;2022-08-26T09:47:00;19.40;;;13.35;;
11988;SDS011;6054;50.966;7.094;2022-08-26T09:49:31;15.02;;;13.30;;
11988;SDS011;6054;50.966;7.094;2022-08-26T09:52:07;16.10;;;13.18;;
11988;SDS011;6054;50.966;7.094;2022-08-26T09:54:39;15.90;;;13.63;;
11988;SDS011;6054;50.966;7.094;2022-08-26T09:57:09;21.65;;;13.07;;
11988;SDS011;6054;50.966;7.094;2022-08-26T09:59:46;19.83;;;13.43;;
11988;SDS011;6054;50.966;7.094;2022-08-26T10:02:22;16.80;;;11.85;;
11988;SDS011;6054;50.966;7.094;2022-08-26T10:05:02;14.05;;;11.38;;
11988;SDS011;6054;50.966;7.094;2022-08-26T10:07:33;15.63;;;14.05;;
11988;SDS011;6054;50.966;7.094;2022-08-26T10:10:12;14.82;;;12.75;;
11988;SDS011;6054;50.966;7.094;2022-08-26T10:12:48;18.83;;;14.50;;
11988;SDS011;6054;50.966;7.094;2022-08-26T10:15:20;17.45;;;13.18;;
11988;SDS011;6054;50.966;7.094;2022-08-26T10:17:51;17.65;;;13.23;;
11988;SDS011;6054;50.966;7.094;2022-08-26T10:20:24;18.40;;;11.23;;
11988;SDS011;6054;50.966;7.094;2022-08-26T10:22:54;13.20;;;11.48;;
11988;SDS011;6054;50.966;7.094;2022-08-26T10:25:28;13.63;;;12.27;;
11988;SDS011;6054;50.966;7.094;2022-08-26T10:28:03;13.48;;;12.07;;
11988;SDS011;6054;50.966;7.094;2022-08-26T10:30:36;12.65;;;10.93;;
11988;SDS011;6054;50.966;7.094;2022-08-26T10:33:09;20.02;;;12.90;;
11988;SDS011;6054;50.966;7.094;2022-08-26T10:35:40;16.02;;;11.43;;
11988;SDS011;6054;50.966;7.094;2022-08-26T10:38:16;15.65;;;10.93;;
11988;SDS011;6054;50.966;7.094;2022-08-26T10:40:50;14.68;;;12.35;;
11988;SDS011;6054;50.966;7.094;2022-08-26T10:43:24;15.07;;;11.95;;
11988;SDS011;6054;50.966;7.094;2022-08-26T10:45:53;19.90;;;17.83;;
11988;SDS011;6054;50.966;7.094;2022-08-26T10:48:27;17.30;;;15.57;;
11988;SDS011;6054;50.966;7.094;2022-08-26T10:51:00;14.57;;;12.25;;
11988;SDS011;6054;50.966;7.094;2022-08-26T10:53:29;12.20;;;10.93;;
11988;SDS011;6054;50.966;7.094;2022-08-26T10:56:07;14.50;;;10.77;;
11988;SDS011;6054;50.966;7.094;2022-08-26T10:58:47;17.52;;;12.18;;
11988;SDS011;6054;50.966;7.094;2022-08-26T11:01:24;16.77;;;13.82;;
11988;SDS011;6054;50.966;7.094;2022-08-26T11:04:11;16.50;;;13.30;;
11988;SDS011;6054;50.966;7.094;2022-08-26T11:06:46;18.98;;;13.43;;
11988;SDS011;6054;50.966;7.094;2022-08-26T11:12:10;18.33;;;10.80;;
11988;SDS011;6054;50.966;7.094;2022-08-26T11:15:15;14.85;;;10.10;;
11988;SDS011;6054;50.966;7.094;2022-08-26T11:27:06;19.80;;;16.40;;
11988;SDS011;6054;50.966;7.094;2022-08-26T11:29:58;17.77;;;15.35;;
11988;SDS011;6054;50.966;7.094;2022-08-26T11:38:24;24.35;;;21.98;;
11988;SDS011;6054;50.966;7.094;2022-08-26T11:40:55;30.80;;;27.48;;
11988;SDS011;6054;50.966;7.094;2022-08-26T11:43:30;29.42;;;26.42;;
11988;SDS011;6054;50.966;7.094;2022-08-26T11:45:59;30.70;;;27.58;;
11988;SDS011;6054;50.966;7.094;2022-08-26T11:48:33;37.50;;;25.42;;
11988;SDS011;6054;50.966;7.094;2022-08-26T11:51:02;27.80;;;25.05;;
11988;SDS011;6054;50.966;7.094;2022-08-26T11:53:32;27.42;;;24.65;;
11988;SDS011;6054;50.966;7.094;2022-08-26T11:56:03;28.42;;;25.52;;
11988;SDS011;6054;50.966;7.094;2022-08-26T11:58:33;27.73;;;25.13;;
11988;SDS011;6054;50.966;7.094;2022-08-26T12:01:02;30.10;;;24.67;;
11988;SDS011;6054;50.966;7.094;2022-08-26T12:03:36;24.98;;;22.65;;
11988;SDS011;6054;50.966;7.094;2022-08-26T12:06:09;25.35;;;22.67;;
11988;SDS011;6054;50.966;7.094;2022-08-26T12:08:39;23.92;;;21.73;;
11988;SDS011;6054;50.966;7.094;2022-08-26T12:11:10;21.48;;;19.15;;
11988;SDS011;6054;50.966;7.094;2022-08-26T12:13:52;20.25;;;18.30;;
11988;SDS011;6054;50.966;7.094;2022-08-26T12:16:21;20.30;;;18.40;;
11988;SDS011;6054;50.966;7.094;2022-08-26T12:18:50;19.35;;;17.45;;
11988;SDS011;6054;50.966;7.094;2022-08-26T12:21:18;18.70;;;16.60;;
11988;SDS011;6054;50.966;7.094;2022-08-26T12:23:48;19.83;;;13.10;;
11988;SDS011;6054;50.966;7.094;2022-08-26T12:26:21;20.33;;;18.20;;
11988;SDS011;6054;50.966;7.094;2022-08-26T12:28:52;18.08;;;16.15;;
11988;SDS011;6054;50.966;7.094;2022-08-26T12:31:23;16.40;;;14.77;;
11988;SDS011;6054;50.966;7.094;2022-08-26T12:33:53;18.33;;;12.93;;
11988;SDS011;6054;50.966;7.094;2022-08-26T12:36:24;13.77;;;10.38;;
11988;SDS011;6054;50.966;7.094;2022-08-26T12:38:55;17.15;;;10.73;;
11988;SDS011;6054;50.966;7.094;2022-08-26T12:44:33;15.05;;;10.60;;
11988;SDS011;6054;50.966;7.094;2022-08-26T12:47:15;15.73;;;9.02;;
11988;SDS011;6054;50.966;7.094;2022-08-26T12:49:56;11.65;;;7.97;;
11988;SDS011;6054;50.966;7.094;2022-08-26T12:52:26;9.60;;;7.75;;
11988;SDS011;6054;50.966;7.094;2022-08-26T12:54:55;12.05;;;7.63;;
11988;SDS011;6054;50.966;7.094;2022-08-26T12:57:24;11.75;;;9.95;;
11988;SDS011;6054;50.966;7.094;2022-08-26T12:59:53;11.73;;;10.52;;
11988;SDS011;6054;50.966;7.094;2022-08-26T13:02:35;16.05;;;10.90;;
11988;SDS011;6054;50.966;7.094;2022-08-26T13:05:05;10.82;;;9.65;;
11988;SDS011;6054;50.966;7.094;2022-08-26T13:07:32;11.25;;;9.65;;
11988;SDS011;6054;50.966;7.094;2022-08-26T13:10:00;16.95;;;9.18;;
11988;SDS011;6054;50.966;7.094;2022-08-26T13:12:28;14.65;;;10.55;;
11988;SDS011;6054;50.966;7.094;2022-08-26T13:14:57;12.50;;;11.23;;
11988;SDS011;6054;50.966;7.094;2022-08-26T13:17:26;11.80;;;10.00;;
11988;SDS011;6054;50.966;7.094;2022-08-26T13:19:54;8.75;;;7.80;;
11988;SDS011;6054;50.966;7.094;2022-08-26T13:22:27;10.30;;;7.45;;
11988;SDS011;6054;50.966;7.094;2022-08-26T13:24:54;6.68;;;5.55;;
11988;SDS011;6054;50.966;7.094;2022-08-26T13:35:20;9.18;;;4.60;;
11988;SDS011;6054;50.966;7.094;2022-08-26T13:37:48;8.93;;;4.75;;
11988;SDS011;6054;50.966;7.094;2022-08-26T13:40:15;7.13;;;4.75;;
11988;SDS011;6054;50.966;7.094;2022-08-26T13:42:42;8.52;;;4.43;;
11988;SDS011;6054;50.966;7.094;2022-08-26T13:45:09;8.10;;;4.95;;
11988;SDS011;6054;50.966;7.094;2022-08-26T13:47:42;6.55;;;4.10;;
11988;SDS011;6054;50.966;7.094;2022-08-26T13:50:09;4.90;;;4.40;;
11988;SDS011;6054;50.966;7.094;2022-08-26T13:52:36;11.43;;;5.18;;
11988;SDS011;6054;50.966;7.094;2022-08-26T13:55:05;5.65;;;3.38;;
11988;SDS011;6054;50.966;7.094;2022-08-26T13:57:32;10.23;;;2.60;;
11988;SDS011;6054;50.966;7.094;2022-08-26T14:00:02;6.82;;;3.05;;
11988;SDS011;6054;50.966;7.094;2022-08-26T14:02:31;7.22;;;3.20;;
11988;SDS011;6054;50.966;7.094;2022-08-26T14:04:58;6.38;;;2.90;;
11988;SDS011;6054;50.966;7.094;2022-08-26T14:07:24;6.53;;;2.85;;
11988;SDS011;6054;50.966;7.094;2022-08-26T14:09:51;6.80;;;2.67;;
11988;SDS011;6054;50.966;7.094;2022-08-26T14:12:20;6.90;;;2.97;;
11988;SDS011;6054;50.966;7.094;2022-08-26T14:14:47;6.47;;;2.10;;
11988;SDS011;6054;50.966;7.094;2022-08-26T14:17:16;6.03;;;2.20;;
11988;SDS011;6054;50.966;7.094;2022-08-26T14:19:47;7.65;;;2.67;;
11988;SDS011;6054;50.966;7.094;2022-08-26T14:22:15;7.35;;;2.30;;
11988;SDS011;6054;50.966;7.094;2022-08-26T14:24:45;8.57;;;2.03;;
11988;SDS011;6054;50.966;7.094;2022-08-26T14:27:12;10.98;;;2.50;;
11988;SDS011;6054;50.966;7.094;2022-08-26T14:29:41;7.03;;;2.35;;
11988;SDS011;6054;50.966;7.094;2022-08-26T14:32:09;5.63;;;2.28;;
11988;SDS011;6054;50.966;7.094;2022-08-26T14:34:40;10.07;;;2.20;;
11988;SDS011;6054;50.966;7.094;2022-08-26T14:37:07;6.95;;;2.13;;
11988;SDS011;6054;50.966;7.094;2022-08-26T14:39:34;7.47;;;2.28;;
11988;SDS011;6054;50.966;7.094;2022-08-26T14:42:02;7.22;;;2.70;;
11988;SDS011;6054;50.966;7.094;2022-08-26T14:44:30;9.43;;;2.28;;
11988;SDS011;6054;50.966;7.094;2022-08-26T14:47:00;13.30;;;2.83;;
11988;SDS011;6054;50.966;7.094;2022-08-26T14:49:30;9.57;;;2.58;;
11988;SDS011;6054;50.966;7.094;2022-08-26T14:51:57;7.28;;;2.50;;
11988;SDS011;6054;50.966;7.094;2022-08-26T14:54:25;6.65;;;2.28;;
11988;SDS011;6054;50.966;7.094;2022-08-26T14:56:51;8.23;;;2.45;;
11988;SDS011;6054;50.966;7.094;2022-08-26T14:59:20;8.35;;;2.65;;
11988;SDS011;6054;50.966;7.094;2022-08-26T15:01:49;8.77;;;2.50;;
11988;SDS011;6054;50.966;7.094;2022-08-26T15:04:17;6.07;;;2.50;;
11988;SDS011;6054;50.966;7.094;2022-08-26T15:06:44;9.82;;;2.50;;
11988;SDS011;6054;50.966;7.094;2022-08-26T15:09:12;10.00;;;2.20;;
11988;SDS011;6054;50.966;7.094;2022-08-26T15:11:39;9.27;;;2.50;;
11988;SDS011;6054;50.966;7.094;2022-08-26T15:14:07;5.18;;;2.00;;
11988;SDS011;6054;50.966;7.094;2022-08-26T15:16:35;7.88;;;2.60;;
11988;SDS011;6054;50.966;7.094;2022-08-26T15:19:02;5.43;;;1.80;;
11988;SDS011;6054;50.966;7.094;2022-08-26T15:21:32;8.18;;;2.50;;
11988;SDS011;6054;50.966;7.094;2022-08-26T15:24:00;14.63;;;3.25;;